Strona główna
METAR-TAF:

METAR-TAF

Lotnisko :

Port lotniczy Tennant Creek

Tennant Creek, Australia

Szerokość geograficzna: 19-38-04S, Długość geograficzna: 134-11-00E, wysokość: 377 m

Aktualna obserwacja pogody

Raport powstał 49 minut temu, godzina 23:00 UTC
Wiatr 17 kt od południowy wschód
Temperatura 31°C
Wilgotność 29%
Ciśnienie 1009 hPa
Widzialność 10 km lub więcej

METAR: YTNK 232300Z AUTO 14017KT 9999 // NCD 31/11 Q1009

czas: 09:19 (23:49 UTC)

Prognoza

Raport powstał 4 godziny i 45 minut temu, godzina 19:04 UTC
Prognoza ważna od 23 godzina 20 UTC do 24 godzina 08 UTC
Wiatr 12 kt od południowy wschód
Widzialność 10 km lub więcej
Brak chmur poniżej 1500 m i brak chmur cumulonimbus
Od 23 godzina 2300 UTC
Wiatr 16 kt od południowy wschód w porywach dochodzący do 28 kt
Widzialność 10 km lub więcej
Brak chmur poniżej 1500 m i brak chmur cumulonimbus

TAF: YTNK 231904Z 2320/2408 14012KT CAVOK FM232300 14016G28KT CAVOK

Obserwacja i prognoza pogody dla ponad 4000 lotnisk (raport METAR i TAF).

Dostępne stacje oznaczono żółtymi i czerwonymi punktami na mapie.

Najedź kursorem aby zobaczyć nazwę stacji.

Kliknij aby zobaczyć obserwacje i prognozy pogody.

Aby zmienić mapę: kliknij na zielony przycisk z czarnym krzyżykiem, aby powiększyć; na zielony przycisk z myślnikiem, aby pomniejszyć; na zielone strzałki, aby przejść do map sąsiednich.


METAR-TAF: